Accueil
METAR-TAF:

METAR-TAF

Aéroports :

Aéroport de Pérouse-Sant'Egidio

Pérouse, Italie

latitude: 43-05N, longitude: 012-30E, altitude: 208 m

Observation

Le bulletin a été fait il y a 31 minutes, à 06:50 UTC
Vent 3 kt de est/sud-est
Température 6°C
Humidité 93%
Pression 1022 hPa
Visibilité: 3000 m
Quelques nuages à une hauteur de 1500 ft
brume

METAR: LIRZ 190650Z 12003KT 3000 BR FEW015 06/05 Q1022

Heure: 08:21 (07:21 UTC)

Prévision

Le bulletin a été fait il y a 2 heures et 21 minutes, à 05:00 UTC
Prévision valable du 19 à 06 UTC au 20 à 06 UTC
Vent 5 kt de direction variable
Visibilité: 7000 m
Nuages épars à une hauteur de 5000 ft
Temporairement
du 19 à 10 UTC au 19 à 16 UTC
Visibilité: 4000 m
pluie

TAF: LIRZ 190500Z 1906/2006 VRB05KT 7000 SCT050 TEMPO 1910/1916 4000 RA

Observations et prévisions météorologiques de plus de 4000 aéroports (messages METAR et TAF).

Les stations disponibles sont représentées par des disques jaunes et rouges sur la carte.

Passer la souris dessus pour voir le nom de la station.

Cliquer dessus pour voir les observations et prévisions météorologiques.

Pour changer de carte: cliquez sur les boutons verts avec une croix noire pour zoomer, sur le bouton vert avec un tiret pour effectuer un zoom arrière, ou sur les flèches vertes pour les cartes adjacentes.


METAR-TAF: